createdAt,value
2023-03-05T00:06:35.532Z,1019
2023-03-05T00:16:35.450Z,1019
2023-03-05T00:26:35.560Z,1019
2023-03-05T00:36:35.461Z,1019
2023-03-05T00:46:35.544Z,1019
2023-03-05T00:56:35.548Z,1019
2023-03-05T01:06:35.597Z,1019
2023-03-05T01:16:35.489Z,1019
2023-03-05T01:26:35.510Z,1018
2023-03-05T01:36:35.534Z,1018
2023-03-05T01:46:35.530Z,1018
2023-03-05T01:56:35.597Z,1018
2023-03-05T02:06:35.605Z,1018
2023-03-05T02:16:35.702Z,1018
2023-03-05T02:26:35.579Z,1018
2023-03-05T02:36:35.536Z,1018
2023-03-05T02:46:35.583Z,1018
2023-03-05T02:56:35.672Z,1018
2023-03-05T03:06:35.594Z,1018
2023-03-05T03:16:35.760Z,1018
2023-03-05T03:26:35.676Z,1018
2023-03-05T03:36:35.622Z,1018
2023-03-05T03:46:35.718Z,1018
2023-03-05T03:56:35.595Z,1018
2023-03-05T04:06:35.708Z,1018
2023-03-05T04:16:35.732Z,1018
2023-03-05T04:26:35.750Z,1018
2023-03-05T04:36:35.721Z,1018
2023-03-05T04:46:35.766Z,1018
2023-03-05T04:56:35.685Z,1018
2023-03-05T05:06:35.727Z,1018
2023-03-05T05:16:35.840Z,1018
2023-03-05T05:26:35.808Z,1018
2023-03-05T05:36:35.700Z,1018
2023-03-05T05:46:35.881Z,1018
2023-03-05T05:56:35.762Z,1018
2023-03-05T06:06:35.790Z,1018
2023-03-05T06:16:35.893Z,1018
2023-03-05T06:26:35.811Z,1018
2023-03-05T06:36:35.943Z,1018
2023-03-05T06:46:35.800Z,1018
2023-03-05T06:56:35.775Z,1018
2023-03-05T07:06:35.842Z,1018
2023-03-05T07:16:35.803Z,1018
2023-03-05T07:26:35.860Z,1018
2023-03-05T07:36:35.804Z,1018
2023-03-05T07:46:35.850Z,1018
2023-03-05T07:56:35.843Z,1018
2023-03-05T08:06:35.826Z,1018
2023-03-05T08:16:35.839Z,1018
2023-03-05T08:26:35.831Z,1018
2023-03-05T08:36:35.872Z,1018
2023-03-05T08:46:36.006Z,1018
2023-03-05T08:56:35.854Z,1018
2023-03-05T09:06:35.913Z,1017
2023-03-05T09:16:35.834Z,1017
2023-03-05T09:26:35.906Z,1017
2023-03-05T09:36:35.834Z,1017
2023-03-05T09:46:35.915Z,1017
2023-03-05T09:56:35.810Z,1017
2023-03-05T10:06:35.938Z,1017
2023-03-05T10:16:35.851Z,1016
2023-03-05T10:26:35.905Z,1016
2023-03-05T10:36:35.824Z,1016
2023-03-05T10:46:35.868Z,1016
2023-03-05T10:56:35.812Z,1016
2023-03-05T11:06:35.993Z,1015
2023-03-05T11:16:35.824Z,1015
2023-03-05T11:26:35.834Z,1015
2023-03-05T11:36:35.842Z,1015
2023-03-05T11:46:35.806Z,1014
2023-03-05T11:56:35.768Z,1014
2023-03-05T12:06:35.783Z,1014
2023-03-05T12:16:35.824Z,1014
2023-03-05T12:26:35.761Z,1014
2023-03-05T12:36:35.844Z,1014
2023-03-05T12:46:35.969Z,1013
2023-03-05T12:56:35.746Z,1013
2023-03-05T13:06:35.915Z,1013
2023-03-05T13:16:35.832Z,1013
2023-03-05T13:26:35.772Z,1013
2023-03-05T13:36:35.744Z,1013
2023-03-05T13:46:35.738Z,1012
2023-03-05T14:06:35.762Z,1012
2023-03-05T14:16:35.805Z,1012
2023-03-05T14:26:35.756Z,1012
2023-03-05T14:36:35.745Z,1012
2023-03-05T14:46:35.719Z,1012
2023-03-05T14:56:35.717Z,1012
2023-03-05T15:06:35.775Z,1012
2023-03-05T15:16:35.674Z,1012
2023-03-05T15:26:35.808Z,1011
2023-03-05T15:36:35.754Z,1011
2023-03-05T15:46:35.852Z,1011
2023-03-05T15:56:35.693Z,1012
2023-03-05T16:06:35.722Z,1012
2023-03-05T16:16:35.666Z,1012
2023-03-05T16:26:35.751Z,1012
2023-03-05T16:36:35.682Z,1012
2023-03-05T16:46:35.763Z,1012
2023-03-05T16:56:35.682Z,1012
2023-03-05T17:06:35.701Z,1012
2023-03-05T17:16:35.801Z,1012
2023-03-05T17:26:35.781Z,1012
2023-03-05T17:36:35.695Z,1012
2023-03-05T17:46:35.781Z,1012
2023-03-05T17:56:35.679Z,1013
2023-03-05T18:06:35.738Z,1013
2023-03-05T18:16:35.884Z,1013
2023-03-05T18:26:35.782Z,1013
2023-03-05T18:36:35.742Z,1013
2023-03-05T18:46:35.798Z,1013
2023-03-05T18:56:35.778Z,1013
2023-03-05T19:06:35.747Z,1013
2023-03-05T19:16:35.729Z,1013
2023-03-05T19:26:35.824Z,1013
2023-03-05T19:36:35.797Z,1013
2023-03-05T19:46:35.795Z,1013
2023-03-05T19:56:35.747Z,1013
2023-03-05T20:06:35.757Z,1013
2023-03-05T20:16:35.736Z,1013
2023-03-05T20:26:35.798Z,1013
2023-03-05T20:36:35.780Z,1013
2023-03-05T20:46:35.813Z,1013
2023-03-05T20:56:35.859Z,1013
2023-03-05T21:06:35.828Z,1013
2023-03-05T21:16:35.861Z,1013
2023-03-05T21:26:35.791Z,1013
2023-03-05T21:36:35.873Z,1013
2023-03-05T21:46:35.807Z,1013
2023-03-05T21:56:35.861Z,1013
2023-03-05T22:06:35.859Z,1013
2023-03-05T22:16:35.922Z,1013
2023-03-05T22:26:35.832Z,1013
2023-03-05T22:36:35.810Z,1012
2023-03-05T22:46:35.834Z,1012
2023-03-05T22:56:35.867Z,1012
2023-03-05T23:06:35.847Z,1012
2023-03-05T23:16:35.849Z,1012
2023-03-05T23:26:35.855Z,1012
2023-03-05T23:36:35.837Z,1012
2023-03-05T23:46:36.022Z,1012
2023-03-05T23:56:35.840Z,1012
